sensor_id;sensor_type;location;lat;lon;timestamp;pressure;altitude;pressure_sealevel;temperature;humidity
21111;BME280;10713;51.912;4.494;2024-03-02T00:00:10;99810.94;;;7.08;100.00
21111;BME280;10713;51.912;4.494;2024-03-02T00:02:44;99811.13;;;7.04;100.00
21111;BME280;10713;51.912;4.494;2024-03-02T00:05:12;99811.25;;;7.00;100.00
21111;BME280;10713;51.912;4.494;2024-03-02T00:07:41;99811.00;;;7.07;100.00
21111;BME280;10713;51.912;4.494;2024-03-02T00:10:08;99814.69;;;7.23;100.00
21111;BME280;10713;51.912;4.494;2024-03-02T00:12:40;99808.56;;;7.24;100.00
21111;BME280;10713;51.912;4.494;2024-03-02T00:18:01;99834.72;;;7.26;100.00
21111;BME280;10713;51.912;4.494;2024-03-02T00:20:26;99831.38;;;7.22;100.00
21111;BME280;10713;51.912;4.494;2024-03-02T00:23:05;99835.03;;;7.18;100.00
21111;BME280;10713;51.912;4.494;2024-03-02T00:25:44;99830.38;;;7.04;100.00
21111;BME280;10713;51.912;4.494;2024-03-02T00:28:28;99823.28;;;7.06;100.00
21111;BME280;10713;51.912;4.494;2024-03-02T00:33:21;99827.38;;;6.91;100.00
21111;BME280;10713;51.912;4.494;2024-03-02T00:35:48;99824.97;;;6.87;100.00
21111;BME280;10713;51.912;4.494;2024-03-02T00:38:14;99817.56;;;6.74;100.00
21111;BME280;10713;51.912;4.494;2024-03-02T00:40:44;99810.19;;;6.62;100.00
21111;BME280;10713;51.912;4.494;2024-03-02T00:43:41;99819.88;;;6.60;100.00
21111;BME280;10713;51.912;4.494;2024-03-02T00:46:08;99821.53;;;6.63;100.00
21111;BME280;10713;51.912;4.494;2024-03-02T00:48:33;99826.63;;;6.66;100.00
21111;BME280;10713;51.912;4.494;2024-03-02T00:51:02;99835.47;;;6.63;100.00
21111;BME280;10713;51.912;4.494;2024-03-02T00:53:29;99835.31;;;6.68;100.00
21111;BME280;10713;51.912;4.494;2024-03-02T00:55:55;99835.31;;;6.68;100.00
21111;BME280;10713;51.912;4.494;2024-03-02T00:58:20;99839.75;;;6.66;100.00
21111;BME280;10713;51.912;4.494;2024-03-02T01:00:46;99830.22;;;6.63;100.00
21111;BME280;10713;51.912;4.494;2024-03-02T01:03:12;99818.03;;;6.62;100.00
21111;BME280;10713;51.912;4.494;2024-03-02T01:05:41;99825.19;;;6.59;100.00
21111;BME280;10713;51.912;4.494;2024-03-02T01:08:07;99819.19;;;6.55;100.00
21111;BME280;10713;51.912;4.494;2024-03-02T01:10:32;99809.88;;;6.48;100.00
21111;BME280;10713;51.912;4.494;2024-03-02T01:12:58;99808.69;;;6.55;100.00
21111;BME280;10713;51.912;4.494;2024-03-02T01:15:23;99820.06;;;6.56;100.00
21111;BME280;10713;51.912;4.494;2024-03-02T01:17:48;99830.00;;;6.47;100.00
21111;BME280;10713;51.912;4.494;2024-03-02T01:20:14;99845.03;;;6.42;100.00
21111;BME280;10713;51.912;4.494;2024-03-02T01:22:39;99848.28;;;6.49;100.00
21111;BME280;10713;51.912;4.494;2024-03-02T01:25:05;99834.06;;;6.54;100.00
21111;BME280;10713;51.912;4.494;2024-03-02T01:27:30;99855.16;;;6.51;100.00
21111;BME280;10713;51.912;4.494;2024-03-02T01:29:56;99869.00;;;6.55;100.00
21111;BME280;10713;51.912;4.494;2024-03-02T01:32:21;99874.88;;;6.62;100.00
21111;BME280;10713;51.912;4.494;2024-03-02T01:34:47;99852.44;;;6.54;100.00
21111;BME280;10713;51.912;4.494;2024-03-02T01:37:12;99841.25;;;6.49;100.00
21111;BME280;10713;51.912;4.494;2024-03-02T01:39:38;99853.38;;;6.52;100.00
21111;BME280;10713;51.912;4.494;2024-03-02T01:42:04;99849.03;;;6.52;100.00
21111;BME280;10713;51.912;4.494;2024-03-02T01:44:29;99842.69;;;6.58;100.00
21111;BME280;10713;51.912;4.494;2024-03-02T01:46:55;99845.06;;;6.64;100.00
21111;BME280;10713;51.912;4.494;2024-03-02T01:49:20;99861.81;;;6.60;100.00
21111;BME280;10713;51.912;4.494;2024-03-02T01:51:46;99859.72;;;6.70;100.00
21111;BME280;10713;51.912;4.494;2024-03-02T01:54:11;99861.09;;;6.57;100.00
21111;BME280;10713;51.912;4.494;2024-03-02T01:56:37;99844.44;;;6.58;100.00
21111;BME280;10713;51.912;4.494;2024-03-02T01:59:02;99859.88;;;6.65;100.00
21111;BME280;10713;51.912;4.494;2024-03-02T02:01:28;99856.69;;;6.57;100.00
21111;BME280;10713;51.912;4.494;2024-03-02T02:03:53;99853.00;;;6.63;100.00
21111;BME280;10713;51.912;4.494;2024-03-02T02:06:19;99852.13;;;6.62;100.00
21111;BME280;10713;51.912;4.494;2024-03-02T02:08:44;99857.75;;;6.75;100.00
21111;BME280;10713;51.912;4.494;2024-03-02T02:11:10;99865.56;;;6.76;100.00
21111;BME280;10713;51.912;4.494;2024-03-02T02:13:36;99857.81;;;6.73;100.00
21111;BME280;10713;51.912;4.494;2024-03-02T02:16:07;99858.22;;;6.63;100.00
21111;BME280;10713;51.912;4.494;2024-03-02T02:18:33;99873.97;;;6.63;100.00
21111;BME280;10713;51.912;4.494;2024-03-02T02:20:59;99861.69;;;6.63;100.00
21111;BME280;10713;51.912;4.494;2024-03-02T02:23:24;99874.66;;;6.68;100.00
21111;BME280;10713;51.912;4.494;2024-03-02T02:25:49;99866.63;;;6.72;100.00
21111;BME280;10713;51.912;4.494;2024-03-02T02:28:15;99877.88;;;6.74;100.00
21111;BME280;10713;51.912;4.494;2024-03-02T02:30:40;99869.25;;;6.72;100.00
21111;BME280;10713;51.912;4.494;2024-03-02T02:33:05;99858.63;;;6.75;100.00
21111;BME280;10713;51.912;4.494;2024-03-02T02:35:31;99853.38;;;6.75;100.00
21111;BME280;10713;51.912;4.494;2024-03-02T02:37:57;99857.22;;;6.67;100.00
21111;BME280;10713;51.912;4.494;2024-03-02T02:40:24;99865.28;;;6.61;100.00
21111;BME280;10713;51.912;4.494;2024-03-02T02:42:49;99862.66;;;6.61;100.00
21111;BME280;10713;51.912;4.494;2024-03-02T02:45:15;99859.72;;;6.70;100.00
21111;BME280;10713;51.912;4.494;2024-03-02T02:47:44;99846.03;;;6.62;100.00
21111;BME280;10713;51.912;4.494;2024-03-02T02:50:10;99850.97;;;6.69;100.00
21111;BME280;10713;51.912;4.494;2024-03-02T02:52:38;99853.84;;;6.63;100.00
21111;BME280;10713;51.912;4.494;2024-03-02T02:55:06;99852.81;;;6.67;100.00
21111;BME280;10713;51.912;4.494;2024-03-02T02:57:33;99853.00;;;6.63;100.00
21111;BME280;10713;51.912;4.494;2024-03-02T03:00:05;99856.41;;;6.65;100.00
21111;BME280;10713;51.912;4.494;2024-03-02T03:02:35;99848.47;;;6.66;100.00
21111;BME280;10713;51.912;4.494;2024-03-02T03:05:00;99857.81;;;6.73;100.00
21111;BME280;10713;51.912;4.494;2024-03-02T03:07:26;99851.78;;;6.71;100.00
21111;BME280;10713;51.912;4.494;2024-03-02T03:09:51;99860.69;;;6.67;100.00
21111;BME280;10713;51.912;4.494;2024-03-02T03:12:16;99858.06;;;6.67;100.00
21111;BME280;10713;51.912;4.494;2024-03-02T03:14:42;99861.47;;;6.69;100.00
21111;BME280;10713;51.912;4.494;2024-03-02T03:17:07;99856.28;;;6.68;100.00
21111;BME280;10713;51.912;4.494;2024-03-02T03:19:33;99858.63;;;6.75;100.00
21111;BME280;10713;51.912;4.494;2024-03-02T03:21:58;99869.56;;;6.87;100.00
21111;BME280;10713;51.912;4.494;2024-03-02T03:24:24;99856.34;;;6.88;100.00
21111;BME280;10713;51.912;4.494;2024-03-02T03:26:49;99870.31;;;6.89;100.00
21111;BME280;10713;51.912;4.494;2024-03-02T03:29:14;99872.19;;;6.87;100.00
21111;BME280;10713;51.912;4.494;2024-03-02T03:31:40;99861.97;;;6.79;100.00
21111;BME280;10713;51.912;4.494;2024-03-02T03:34:05;99866.50;;;6.75;100.00
21111;BME280;10713;51.912;4.494;2024-03-02T03:36:31;99881.34;;;6.75;100.00
21111;BME280;10713;51.912;4.494;2024-03-02T03:38:56;99878.69;;;6.76;100.00
21111;BME280;10713;51.912;4.494;2024-03-02T03:41:23;99880.63;;;6.71;100.00
21111;BME280;10713;51.912;4.494;2024-03-02T03:43:49;99877.75;;;6.77;100.00
21111;BME280;10713;51.912;4.494;2024-03-02T03:46:14;99875.00;;;6.81;100.00
21111;BME280;10713;51.912;4.494;2024-03-02T03:48:40;99880.13;;;6.84;100.00
21111;BME280;10713;51.912;4.494;2024-03-02T03:51:07;99869.00;;;6.79;100.00
21111;BME280;10713;51.912;4.494;2024-03-02T03:53:32;99872.50;;;6.77;100.00
21111;BME280;10713;51.912;4.494;2024-03-02T03:55:57;99878.72;;;6.75;100.00
21111;BME280;10713;51.912;4.494;2024-03-02T03:58:23;99882.41;;;6.71;100.00
21111;BME280;10713;51.912;4.494;2024-03-02T04:00:48;99890.22;;;6.72;100.00
21111;BME280;10713;51.912;4.494;2024-03-02T04:03:13;99878.00;;;6.71;100.00
21111;BME280;10713;51.912;4.494;2024-03-02T04:05:39;99879.38;;;6.82;100.00
21111;BME280;10713;51.912;4.494;2024-03-02T04:08:04;99882.22;;;6.75;100.00
21111;BME280;10713;51.912;4.494;2024-03-02T04:10:30;99876.47;;;6.66;100.00
21111;BME280;10713;51.912;4.494;2024-03-02T04:12:55;99881.91;;;6.61;100.00
21111;BME280;10713;51.912;4.494;2024-03-02T04:15:21;99889.81;;;6.60;100.00
21111;BME280;10713;51.912;4.494;2024-03-02T04:17:48;99879.56;;;6.53;100.00
21111;BME280;10713;51.912;4.494;2024-03-02T04:20:13;99890.28;;;6.47;100.00
21111;BME280;10713;51.912;4.494;2024-03-02T04:22:39;99888.78;;;6.40;100.00
21111;BME280;10713;51.912;4.494;2024-03-02T04:25:04;99886.81;;;6.47;100.00
21111;BME280;10713;51.912;4.494;2024-03-02T04:27:31;99887.78;;;6.44;100.00
21111;BME280;10713;51.912;4.494;2024-03-02T04:29:59;99886.13;;;6.42;100.00
21111;BME280;10713;51.912;4.494;2024-03-02T04:32:26;99881.78;;;6.41;100.00
21111;BME280;10713;51.912;4.494;2024-03-02T04:34:51;99880.94;;;6.40;100.00
21111;BME280;10713;51.912;4.494;2024-03-02T04:37:17;99883.44;;;6.43;100.00
21111;BME280;10713;51.912;4.494;2024-03-02T04:39:42;99890.28;;;6.47;100.00
21111;BME280;10713;51.912;4.494;2024-03-02T04:42:07;99899.97;;;6.45;100.00
21111;BME280;10713;51.912;4.494;2024-03-02T04:44:33;99904.38;;;6.45;100.00
21111;BME280;10713;51.912;4.494;2024-03-02T04:46:58;99910.31;;;6.50;100.00
21111;BME280;10713;51.912;4.494;2024-03-02T04:49:23;99909.66;;;6.43;100.00
21111;BME280;10713;51.912;4.494;2024-03-02T04:51:49;99910.63;;;6.41;100.00
21111;BME280;10713;51.912;4.494;2024-03-02T04:54:14;99911.63;;;6.38;100.00
21111;BME280;10713;51.912;4.494;2024-03-02T04:56:40;99915.00;;;6.40;100.00
21111;BME280;10713;51.912;4.494;2024-03-02T04:59:10;99920.03;;;6.46;100.00
21111;BME280;10713;51.912;4.494;2024-03-02T05:01:35;99907.94;;;6.42;100.00
21111;BME280;10713;51.912;4.494;2024-03-02T05:04:01;99904.47;;;6.42;100.00
21111;BME280;10713;51.912;4.494;2024-03-02T05:06:26;99916.75;;;6.41;100.00
21111;BME280;10713;51.912;4.494;2024-03-02T05:08:51;99921.41;;;6.33;100.00
21111;BME280;10713;51.912;4.494;2024-03-02T05:11:17;99919.00;;;6.27;100.00
21111;BME280;10713;51.912;4.494;2024-03-02T05:14:01;99920.09;;;6.21;100.00
21111;BME280;10713;51.912;4.494;2024-03-02T05:16:26;99929.69;;;6.21;100.00
21111;BME280;10713;51.912;4.494;2024-03-02T05:18:51;99927.03;;;6.22;100.00
21111;BME280;10713;51.912;4.494;2024-03-02T05:21:17;99927.88;;;6.23;100.00
21111;BME280;10713;51.912;4.494;2024-03-02T05:23:42;99926.88;;;6.27;100.00
21111;BME280;10713;51.912;4.494;2024-03-02T05:26:08;99937.41;;;6.25;100.00
21111;BME280;10713;51.912;4.494;2024-03-02T05:28:36;99935.47;;;6.30;100.00
21111;BME280;10713;51.912;4.494;2024-03-02T05:31:01;99944.19;;;6.31;100.00
21111;BME280;10713;51.912;4.494;2024-03-02T05:33:27;99935.41;;;6.32;100.00
21111;BME280;10713;51.912;4.494;2024-03-02T05:35:53;99938.09;;;6.30;100.00
21111;BME280;10713;51.912;4.494;2024-03-02T05:38:18;99938.78;;;6.36;100.00
21111;BME280;10713;51.912;4.494;2024-03-02T05:40:44;99933.94;;;6.48;100.00
21111;BME280;10713;51.912;4.494;2024-03-02T05:43:09;99938.19;;;6.52;100.00
21111;BME280;10713;51.912;4.494;2024-03-02T05:45:34;99938.91;;;6.56;100.00
21111;BME280;10713;51.912;4.494;2024-03-02T05:48:00;99937.94;;;6.59;100.00
21111;BME280;10713;51.912;4.494;2024-03-02T05:50:25;99933.66;;;6.56;100.00
21111;BME280;10713;51.912;4.494;2024-03-02T05:52:50;99933.72;;;6.54;100.00
21111;BME280;10713;51.912;4.494;2024-03-02T05:55:16;99934.47;;;6.58;100.00
21111;BME280;10713;51.912;4.494;2024-03-02T05:57:41;99946.19;;;6.48;100.00
21111;BME280;10713;51.912;4.494;2024-03-02T06:00:09;99936.44;;;6.51;100.00
21111;BME280;10713;51.912;4.494;2024-03-02T06:02:39;99943.69;;;6.45;100.00
21111;BME280;10713;51.912;4.494;2024-03-02T06:05:04;99939.06;;;6.51;100.00
21111;BME280;10713;51.912;4.494;2024-03-02T06:07:30;99938.22;;;6.51;100.00
21111;BME280;10713;51.912;4.494;2024-03-02T06:09:55;99940.84;;;6.51;100.00
21111;BME280;10713;51.912;4.494;2024-03-02T06:12:20;99939.03;;;6.53;100.00
21111;BME280;10713;51.912;4.494;2024-03-02T06:14:46;99933.09;;;6.48;100.00
21111;BME280;10713;51.912;4.494;2024-03-02T06:17:11;99931.44;;;6.45;100.00
21111;BME280;10713;51.912;4.494;2024-03-02T06:19:36;99947.06;;;6.48;100.00
21111;BME280;10713;51.912;4.494;2024-03-02T06:22:02;99950.47;;;6.50;100.00
21111;BME280;10713;51.912;4.494;2024-03-02T06:24:27;99944.88;;;6.60;100.00
21111;BME280;10713;51.912;4.494;2024-03-02T06:26:52;99949.00;;;6.67;100.00
21111;BME280;10713;51.912;4.494;2024-03-02T06:29:18;99945.75;;;6.60;100.00
21111;BME280;10713;51.912;4.494;2024-03-02T06:31:43;99960.91;;;6.52;100.00
21111;BME280;10713;51.912;4.494;2024-03-02T06:34:09;99956.53;;;6.52;100.00
21111;BME280;10713;51.912;4.494;2024-03-02T06:36:34;99961.66;;;6.56;100.00
21111;BME280;10713;51.912;4.494;2024-03-02T06:38:59;99947.66;;;6.55;100.00
21111;BME280;10713;51.912;4.494;2024-03-02T06:41:25;99955.16;;;6.42;100.00
21111;BME280;10713;51.912;4.494;2024-03-02T06:43:51;99943.38;;;6.29;100.00
21111;BME280;10713;51.912;4.494;2024-03-02T06:46:24;99945.16;;;6.28;100.00
21111;BME280;10713;51.912;4.494;2024-03-02T06:48:50;99961.56;;;6.34;100.00
21111;BME280;10713;51.912;4.494;2024-03-02T06:51:15;99964.47;;;6.26;100.00
21111;BME280;10713;51.912;4.494;2024-03-02T06:53:41;99974.69;;;6.34;100.00
21111;BME280;10713;51.912;4.494;2024-03-02T06:56:07;99975.03;;;6.48;100.00
21111;BME280;10713;51.912;4.494;2024-03-02T06:58:33;99974.78;;;6.56;100.00
21111;BME280;10713;51.912;4.494;2024-03-02T07:00:58;99979.22;;;6.53;100.00
21111;BME280;10713;51.912;4.494;2024-03-02T07:03:25;99982.69;;;6.54;100.00
21111;BME280;10713;51.912;4.494;2024-03-02T07:05:51;99974.31;;;6.44;100.00
21111;BME280;10713;51.912;4.494;2024-03-02T07:08:16;99977.94;;;6.40;100.00
21111;BME280;10713;51.912;4.494;2024-03-02T07:10:42;99980.63;;;6.39;100.00
21111;BME280;10713;51.912;4.494;2024-03-02T07:13:07;99984.91;;;6.41;100.00
21111;BME280;10713;51.912;4.494;2024-03-02T07:15:32;99982.69;;;6.77;100.00
21111;BME280;10713;51.912;4.494;2024-03-02T07:18:30;99985.06;;;7.29;100.00
21111;BME280;10713;51.912;4.494;2024-03-02T07:20:56;99977.34;;;8.11;100.00
21111;BME280;10713;51.912;4.494;2024-03-02T07:23:26;99974.13;;;8.45;100.00
21111;BME280;10713;51.912;4.494;2024-03-02T07:25:56;99960.88;;;8.86;100.00
21111;BME280;10713;51.912;4.494;2024-03-02T07:28:24;99966.59;;;9.32;100.00
21111;BME280;10713;51.912;4.494;2024-03-02T07:31:03;99960.31;;;9.54;100.00
21111;BME280;10713;51.912;4.494;2024-03-02T07:33:29;99967.88;;;9.79;100.00
21111;BME280;10713;51.912;4.494;2024-03-02T07:35:55;99966.69;;;10.36;100.00
21111;BME280;10713;51.912;4.494;2024-03-02T07:38:21;99982.97;;;10.10;100.00
21111;BME280;10713;51.912;4.494;2024-03-02T07:40:50;99963.13;;;10.37;100.00
21111;BME280;10713;51.912;4.494;2024-03-02T07:43:16;99957.31;;;10.64;100.00
21111;BME280;10713;51.912;4.494;2024-03-02T07:45:42;99951.72;;;10.70;100.00
21111;BME280;10713;51.912;4.494;2024-03-02T07:48:07;99953.19;;;10.92;100.00
21111;BME280;10713;51.912;4.494;2024-03-02T07:50:33;99938.53;;;11.18;100.00
21111;BME280;10713;51.912;4.494;2024-03-02T07:53:00;99937.03;;;11.60;100.00
21111;BME280;10713;51.912;4.494;2024-03-02T07:55:26;99939.66;;;11.60;100.00
21111;BME280;10713;51.912;4.494;2024-03-02T07:57:51;99934.25;;;12.22;100.00
21111;BME280;10713;51.912;4.494;2024-03-02T08:00:17;99927.38;;;12.91;100.00
21111;BME280;10713;51.912;4.494;2024-03-02T08:02:42;99921.41;;;12.73;100.00
21111;BME280;10713;51.912;4.494;2024-03-02T08:05:08;99931.06;;;12.88;100.00
21111;BME280;10713;51.912;4.494;2024-03-02T08:07:34;99924.34;;;13.24;100.00
21111;BME280;10713;51.912;4.494;2024-03-02T08:09:59;99926.75;;;13.68;100.00
21111;BME280;10713;51.912;4.494;2024-03-02T08:12:25;99925.88;;;13.28;100.00
21111;BME280;10713;51.912;4.494;2024-03-02T08:14:50;99932.47;;;13.62;100.00
21111;BME280;10713;51.912;4.494;2024-03-02T08:17:16;99932.88;;;13.15;100.00
21111;BME280;10713;51.912;4.494;2024-03-02T08:19:42;99928.41;;;13.29;100.00
21111;BME280;10713;51.912;4.494;2024-03-02T08:22:07;99933.81;;;12.72;100.00
21111;BME280;10713;51.912;4.494;2024-03-02T08:24:33;99930.75;;;12.93;100.00
21111;BME280;10713;51.912;4.494;2024-03-02T08:27:02;99932.69;;;12.76;100.00
21111;BME280;10713;51.912;4.494;2024-03-02T08:29:27;99924.72;;;13.32;100.00
21111;BME280;10713;51.912;4.494;2024-03-02T08:31:53;99918.34;;;12.93;100.00
21111;BME280;10713;51.912;4.494;2024-03-02T08:34:19;99921.88;;;13.21;100.00
21111;BME280;10713;51.912;4.494;2024-03-02T08:36:44;99928.16;;;13.47;100.00
21111;BME280;10713;51.912;4.494;2024-03-02T08:39:09;99917.97;;;13.93;100.00
21111;BME280;10713;51.912;4.494;2024-03-02T08:41:44;99925.13;;;14.06;100.00
21111;BME280;10713;51.912;4.494;2024-03-02T08:44:10;99918.25;;;13.76;100.00
21111;BME280;10713;51.912;4.494;2024-03-02T08:46:35;99927.91;;;14.17;100.00
21111;BME280;10713;51.912;4.494;2024-03-02T08:49:01;99930.69;;;14.91;100.00
21111;BME280;10713;51.912;4.494;2024-03-02T08:51:26;99929.06;;;15.38;100.00
21111;BME280;10713;51.912;4.494;2024-03-02T08:53:52;99918.81;;;15.44;100.00
21111;BME280;10713;51.912;4.494;2024-03-02T08:56:17;99911.09;;;15.04;100.00
21111;BME280;10713;51.912;4.494;2024-03-02T08:58:43;99918.00;;;14.70;100.00
21111;BME280;10713;51.912;4.494;2024-03-02T09:01:09;99925.59;;;15.24;100.00
21111;BME280;10713;51.912;4.494;2024-03-02T09:03:35;99928.84;;;14.80;100.00
21111;BME280;10713;51.912;4.494;2024-03-02T09:06:01;99941.03;;;15.19;100.00
21111;BME280;10713;51.912;4.494;2024-03-02T09:08:26;99929.50;;;15.55;100.00
21111;BME280;10713;51.912;4.494;2024-03-02T09:10:52;99937.44;;;15.20;100.00
21111;BME280;10713;51.912;4.494;2024-03-02T09:13:18;99940.16;;;14.95;100.00
21111;BME280;10713;51.912;4.494;2024-03-02T09:15:43;99948.28;;;15.17;100.00
21111;BME280;10713;51.912;4.494;2024-03-02T09:18:09;99929.34;;;14.85;100.00
21111;BME280;10713;51.912;4.494;2024-03-02T09:20:35;99925.56;;;14.63;100.00
21111;BME280;10713;51.912;4.494;2024-03-02T09:23:00;99936.53;;;13.93;100.00
21111;BME280;10713;51.912;4.494;2024-03-02T09:25:25;99952.63;;;14.30;100.00
21111;BME280;10713;51.912;4.494;2024-03-02T09:27:51;99934.66;;;13.95;100.00
21111;BME280;10713;51.912;4.494;2024-03-02T09:30:16;99945.13;;;13.84;100.00
21111;BME280;10713;51.912;4.494;2024-03-02T09:32:42;99936.06;;;13.61;100.00
21111;BME280;10713;51.912;4.494;2024-03-02T09:35:07;99940.72;;;14.36;100.00
21111;BME280;10713;51.912;4.494;2024-03-02T09:37:32;99936.53;;;14.96;100.00
21111;BME280;10713;51.912;4.494;2024-03-02T09:39:58;99946.16;;;14.85;100.00
21111;BME280;10713;51.912;4.494;2024-03-02T09:42:24;99944.88;;;14.91;100.00
21111;BME280;10713;51.912;4.494;2024-03-02T09:44:51;99948.00;;;15.09;100.00
21111;BME280;10713;51.912;4.494;2024-03-02T09:47:17;99948.31;;;15.04;92.77
21111;BME280;10713;51.912;4.494;2024-03-02T09:49:42;99954.41;;;15.30;97.00
21111;BME280;10713;51.912;4.494;2024-03-02T09:52:10;99952.03;;;15.02;94.30
21111;BME280;10713;51.912;4.494;2024-03-02T09:54:35;99950.41;;;14.88;100.00
21111;BME280;10713;51.912;4.494;2024-03-02T09:57:02;99978.00;;;14.98;95.94
21111;BME280;10713;51.912;4.494;2024-03-02T09:59:28;99972.06;;;14.95;92.58
21111;BME280;10713;51.912;4.494;2024-03-02T10:01:58;99968.59;;;15.42;92.98
21111;BME280;10713;51.912;4.494;2024-03-02T10:04:27;99972.63;;;15.48;91.88
21111;BME280;10713;51.912;4.494;2024-03-02T10:09:41;99968.19;;;15.12;92.03
21111;BME280;10713;51.912;4.494;2024-03-02T10:12:08;99954.16;;;15.33;86.89
21111;BME280;10713;51.912;4.494;2024-03-02T10:14:34;99949.03;;;15.43;87.00
21111;BME280;10713;51.912;4.494;2024-03-02T10:17:04;99915.28;;;14.96;82.62
21111;BME280;10713;51.912;4.494;2024-03-02T10:19:30;99940.63;;;15.25;84.91
21111;BME280;10713;51.912;4.494;2024-03-02T10:22:00;99932.41;;;15.76;88.86
21111;BME280;10713;51.912;4.494;2024-03-02T10:24:26;99920.91;;;16.11;80.71
21111;BME280;10713;51.912;4.494;2024-03-02T10:26:52;99923.94;;;16.29;78.61
21111;BME280;10713;51.912;4.494;2024-03-02T10:29:18;99902.56;;;15.60;72.86
21111;BME280;10713;51.912;4.494;2024-03-02T10:31:44;99935.13;;;15.40;76.81
21111;BME280;10713;51.912;4.494;2024-03-02T10:34:11;99935.28;;;15.25;77.66
21111;BME280;10713;51.912;4.494;2024-03-02T10:36:40;99935.16;;;15.03;82.87
21111;BME280;10713;51.912;4.494;2024-03-02T10:39:06;99927.47;;;14.61;93.43
21111;BME280;10713;51.912;4.494;2024-03-02T10:41:37;99929.88;;;14.13;83.63
21111;BME280;10713;51.912;4.494;2024-03-02T10:44:03;99916.41;;;14.42;90.87
21111;BME280;10713;51.912;4.494;2024-03-02T10:46:30;99918.84;;;14.32;97.63
21111;BME280;10713;51.912;4.494;2024-03-02T10:49:00;99920.25;;;13.60;97.95
21111;BME280;10713;51.912;4.494;2024-03-02T10:51:30;99925.97;;;13.12;100.00
21111;BME280;10713;51.912;4.494;2024-03-02T10:53:59;99922.75;;;12.51;100.00
21111;BME280;10713;51.912;4.494;2024-03-02T10:59:06;99926.78;;;11.84;100.00
21111;BME280;10713;51.912;4.494;2024-03-02T11:01:39;99923.47;;;11.96;100.00
21111;BME280;10713;51.912;4.494;2024-03-02T11:04:08;99922.00;;;12.35;100.00
21111;BME280;10713;51.912;4.494;2024-03-02T11:06:35;99920.75;;;12.83;100.00
21111;BME280;10713;51.912;4.494;2024-03-02T11:09:06;99930.91;;;13.04;100.00
21111;BME280;10713;51.912;4.494;2024-03-02T11:11:37;99933.50;;;12.91;100.00
21111;BME280;10713;51.912;4.494;2024-03-02T11:14:04;99927.06;;;12.95;100.00
21111;BME280;10713;51.912;4.494;2024-03-02T11:16:36;99927.22;;;12.65;100.00
21111;BME280;10713;51.912;4.494;2024-03-02T11:19:07;99901.97;;;12.16;100.00
21111;BME280;10713;51.912;4.494;2024-03-02T11:21:34;99911.00;;;11.98;100.00
21111;BME280;10713;51.912;4.494;2024-03-02T11:24:00;99917.53;;;12.07;100.00
21111;BME280;10713;51.912;4.494;2024-03-02T11:26:27;99913.59;;;12.14;100.00
21111;BME280;10713;51.912;4.494;2024-03-02T11:28:53;99920.16;;;12.07;100.00
21111;BME280;10713;51.912;4.494;2024-03-02T11:31:19;99909.78;;;12.18;100.00
21111;BME280;10713;51.912;4.494;2024-03-02T11:33:44;99917.94;;;12.29;100.00
21111;BME280;10713;51.912;4.494;2024-03-02T11:36:10;99888.56;;;12.34;100.00
21111;BME280;10713;51.912;4.494;2024-03-02T11:38:35;99890.16;;;12.51;100.00
21111;BME280;10713;51.912;4.494;2024-03-02T11:41:03;99891.06;;;12.64;99.07
21111;BME280;10713;51.912;4.494;2024-03-02T11:43:32;99887.56;;;12.78;94.74
21111;BME280;10713;51.912;4.494;2024-03-02T11:46:03;99885.56;;;12.81;99.59
21111;BME280;10713;51.912;4.494;2024-03-02T11:48:32;99878.97;;;12.60;97.03
21111;BME280;10713;51.912;4.494;2024-03-02T11:50:59;99887.69;;;12.62;91.77
21111;BME280;10713;51.912;4.494;2024-03-02T11:53:28;99863.13;;;12.46;91.03
21111;BME280;10713;51.912;4.494;2024-03-02T11:55:58;99888.53;;;12.62;100.00
21111;BME280;10713;51.912;4.494;2024-03-02T11:58:24;99874.13;;;12.67;95.57
21111;BME280;10713;51.912;4.494;2024-03-02T12:00:53;99883.44;;;12.45;96.00
21111;BME280;10713;51.912;4.494;2024-03-02T12:03:24;99879.25;;;12.55;100.00
21111;BME280;10713;51.912;4.494;2024-03-02T12:05:52;99860.53;;;12.44;94.73
21111;BME280;10713;51.912;4.494;2024-03-02T12:08:17;99869.03;;;12.63;100.00
21111;BME280;10713;51.912;4.494;2024-03-02T12:10:43;99868.84;;;12.67;100.00
21111;BME280;10713;51.912;4.494;2024-03-02T12:13:20;99865.78;;;12.31;99.96
21111;BME280;10713;51.912;4.494;2024-03-02T12:15:45;99855.00;;;12.34;100.00
21111;BME280;10713;51.912;4.494;2024-03-02T12:18:11;99848.66;;;12.23;100.00
21111;BME280;10713;51.912;4.494;2024-03-02T12:20:36;99856.59;;;12.37;100.00
21111;BME280;10713;51.912;4.494;2024-03-02T12:23:02;99836.53;;;12.33;100.00
21111;BME280;10713;51.912;4.494;2024-03-02T12:25:30;99827.19;;;12.13;100.00
21111;BME280;10713;51.912;4.494;2024-03-02T12:27:58;99855.84;;;12.21;100.00
21111;BME280;10713;51.912;4.494;2024-03-02T12:30:27;99841.50;;;12.39;100.00
21111;BME280;10713;51.912;4.494;2024-03-02T12:32:54;99848.88;;;12.75;100.00
21111;BME280;10713;51.912;4.494;2024-03-02T12:35:19;99841.03;;;12.74;100.00
21111;BME280;10713;51.912;4.494;2024-03-02T12:37:49;99847.44;;;12.84;100.00
21111;BME280;10713;51.912;4.494;2024-03-02T12:40:17;99849.94;;;13.00;100.00
21111;BME280;10713;51.912;4.494;2024-03-02T12:42:44;99849.19;;;12.98;99.26
21111;BME280;10713;51.912;4.494;2024-03-02T12:45:10;99849.91;;;12.73;98.31
21111;BME280;10713;51.912;4.494;2024-03-02T12:47:36;99858.72;;;12.59;100.00
21111;BME280;10713;51.912;4.494;2024-03-02T12:50:03;99821.34;;;12.36;100.00
21111;BME280;10713;51.912;4.494;2024-03-02T12:52:30;99826.16;;;12.44;100.00
21111;BME280;10713;51.912;4.494;2024-03-02T12:54:56;99823.31;;;12.33;100.00
21111;BME280;10713;51.912;4.494;2024-03-02T12:57:28;99809.16;;;12.34;100.00
21111;BME280;10713;51.912;4.494;2024-03-02T13:00:05;99810.28;;;12.30;100.00
21111;BME280;10713;51.912;4.494;2024-03-02T13:02:40;99814.94;;;11.98;100.00
21111;BME280;10713;51.912;4.494;2024-03-02T13:05:06;99812.56;;;12.07;100.00